createdAt,value
2022-11-29T00:03:02.315Z,85.97
2022-11-29T00:06:13.580Z,85.89
2022-11-29T00:09:21.757Z,85.81
2022-11-29T00:12:31.575Z,85.60
2022-11-29T00:15:41.053Z,86.01
2022-11-29T00:18:50.689Z,86.65
2022-11-29T00:21:59.109Z,86.68
2022-11-29T00:25:08.989Z,86.11
2022-11-29T00:28:18.750Z,86.04
2022-11-29T00:31:31.144Z,85.57
2022-11-29T00:34:39.543Z,86.37
2022-11-29T00:37:47.750Z,85.88
2022-11-29T00:40:55.917Z,86.12
2022-11-29T00:44:05.955Z,85.70
2022-11-29T00:47:14.259Z,85.91
2022-11-29T00:50:22.653Z,86.08
2022-11-29T00:53:30.907Z,85.78
2022-11-29T00:56:39.266Z,86.07
2022-11-29T00:59:49.392Z,86.36
2022-11-29T01:02:57.742Z,85.94
2022-11-29T01:06:09.131Z,85.94
2022-11-29T01:09:17.325Z,85.95
2022-11-29T01:12:25.749Z,86.29
2022-11-29T01:15:35.669Z,86.40
2022-11-29T01:18:44.646Z,86.11
2022-11-29T01:21:53.529Z,85.88
2022-11-29T01:25:01.803Z,86.51
2022-11-29T01:28:10.429Z,86.80
2022-11-29T01:31:24.184Z,87.03
2022-11-29T01:34:32.512Z,86.32
2022-11-29T01:37:41.052Z,86.58
2022-11-29T01:41:00.990Z,86.68
2022-11-29T01:45:02.517Z,87.22
2022-11-29T01:48:15.413Z,86.80
2022-11-29T01:51:24.268Z,86.59
2022-11-29T01:54:37.994Z,86.14
2022-11-29T01:57:46.593Z,87.20
2022-11-29T02:00:54.942Z,86.49
2022-11-29T02:04:05.429Z,86.71
2022-11-29T02:07:14.237Z,86.37
2022-11-29T02:10:41.603Z,86.49
2022-11-29T02:14:02.477Z,86.35
2022-11-29T02:17:26.148Z,87.18
2022-11-29T02:21:16.442Z,86.71
2022-11-29T02:25:04.299Z,86.47
2022-11-29T02:28:58.476Z,86.49
2022-11-29T02:33:03.905Z,86.13
2022-11-29T02:36:40.621Z,86.40
2022-11-29T02:40:26.028Z,86.15
2022-11-29T02:44:10.210Z,86.00
2022-11-29T02:47:37.098Z,86.16
2022-11-29T02:50:58.919Z,86.05
2022-11-29T02:54:20.464Z,86.07
2022-11-29T02:57:42.862Z,85.80
2022-11-29T03:01:03.794Z,85.80
2022-11-29T03:04:23.057Z,86.62
2022-11-29T03:07:45.567Z,86.07
2022-11-29T03:11:05.942Z,85.71
2022-11-29T03:14:25.672Z,86.06
2022-11-29T03:17:51.075Z,86.37
2022-11-29T03:21:10.960Z,85.87
2022-11-29T03:24:31.827Z,86.53
2022-11-29T03:27:51.445Z,86.53
2022-11-29T03:31:09.696Z,86.65
2022-11-29T03:34:31.624Z,86.45
2022-11-29T03:37:51.411Z,86.45
2022-11-29T03:41:18.742Z,86.25
2022-11-29T03:44:35.977Z,86.39
2022-11-29T03:47:57.481Z,85.84
2022-11-29T03:51:14.802Z,86.30
2022-11-29T03:54:30.692Z,86.17
2022-11-29T03:57:56.287Z,86.15
2022-11-29T04:01:56.057Z,86.74
2022-11-29T04:05:47.661Z,86.45
2022-11-29T04:09:35.422Z,86.36
2022-11-29T04:13:24.946Z,86.25
2022-11-29T04:17:43.485Z,86.27
2022-11-29T04:21:27.727Z,85.87
2022-11-29T04:25:36.382Z,86.10
2022-11-29T04:29:25.171Z,86.08
2022-11-29T04:33:27.528Z,86.52
2022-11-29T04:37:09.908Z,86.43
2022-11-29T04:40:46.456Z,86.35
2022-11-29T04:44:35.172Z,86.47
2022-11-29T04:48:00.230Z,86.16
2022-11-29T04:51:22.420Z,85.96
2022-11-29T04:54:40.709Z,86.12
2022-11-29T04:57:56.807Z,86.04
2022-11-29T05:01:20.821Z,86.46
2022-11-29T05:04:42.061Z,86.22
2022-11-29T05:08:05.530Z,86.22
2022-11-29T05:11:27.316Z,86.18
2022-11-29T05:14:56.027Z,86.63
2022-11-29T05:18:19.637Z,87.10
2022-11-29T05:21:48.326Z,86.95
2022-11-29T05:25:22.562Z,86.85
2022-11-29T05:28:41.614Z,86.41
2022-11-29T05:32:11.776Z,86.25
2022-11-29T05:35:51.436Z,86.49
2022-11-29T05:39:30.770Z,86.77
2022-11-29T05:43:06.508Z,86.38
2022-11-29T05:46:23.055Z,86.14
2022-11-29T05:49:43.265Z,86.54
2022-11-29T05:53:03.258Z,86.26
2022-11-29T05:56:24.791Z,86.38
2022-11-29T05:59:38.913Z,85.76
2022-11-29T06:02:59.334Z,86.39
2022-11-29T06:06:18.039Z,85.98
2022-11-29T06:09:36.725Z,86.25
2022-11-29T06:12:57.288Z,86.51
2022-11-29T06:16:50.952Z,85.81
2022-11-29T06:20:20.914Z,86.65
2022-11-29T06:23:53.448Z,86.23
2022-11-29T06:27:30.503Z,85.85
2022-11-29T06:30:56.040Z,86.24
2022-11-29T06:34:17.086Z,86.06
2022-11-29T06:37:32.635Z,86.36
2022-11-29T06:40:41.776Z,86.43
2022-11-29T06:43:53.180Z,86.43
2022-11-29T06:47:09.860Z,86.45
2022-11-29T06:50:35.957Z,85.75
2022-11-29T06:53:59.022Z,86.21
2022-11-29T06:57:22.502Z,86.22
2022-11-29T07:00:44.562Z,86.16
2022-11-29T07:04:16.095Z,85.94
2022-11-29T07:07:28.004Z,86.25
2022-11-29T07:10:41.420Z,86.43
2022-11-29T07:13:50.592Z,85.63
2022-11-29T07:17:22.227Z,85.79
2022-11-29T07:20:41.920Z,86.41
2022-11-29T07:24:06.944Z,85.81
2022-11-29T07:27:22.114Z,85.79
2022-11-29T07:30:42.854Z,85.72
2022-11-29T07:34:05.647Z,85.76
2022-11-29T07:37:29.741Z,85.99
2022-11-29T07:40:52.213Z,84.90
2022-11-29T07:44:14.076Z,84.94
2022-11-29T07:47:22.506Z,85.03
2022-11-29T07:50:32.979Z,85.17
2022-11-29T07:53:45.350Z,85.54
2022-11-29T07:56:53.664Z,84.99
2022-11-29T08:00:01.889Z,84.69
2022-11-29T08:03:19.759Z,84.29
2022-11-29T08:06:29.618Z,84.55
2022-11-29T08:09:37.983Z,83.99
2022-11-29T08:12:50.088Z,84.37
2022-11-29T08:15:58.767Z,83.96
2022-11-29T08:19:07.312Z,83.50
2022-11-29T08:22:16.984Z,83.61
2022-11-29T08:25:28.729Z,84.01
2022-11-29T08:28:36.937Z,83.83
2022-11-29T08:31:45.873Z,83.45
2022-11-29T08:34:54.387Z,83.03
2022-11-29T08:38:05.023Z,82.72
2022-11-29T08:41:16.468Z,83.32
2022-11-29T08:44:24.782Z,82.75
2022-11-29T08:47:38.808Z,82.69
2022-11-29T08:50:47.104Z,82.74
2022-11-29T08:53:55.819Z,82.26
2022-11-29T08:57:38.152Z,82.90
2022-11-29T09:00:33.502Z,82.19
2022-11-29T09:03:59.282Z,81.22
2022-11-29T09:07:07.746Z,82.09
2022-11-29T09:10:17.421Z,81.47
2022-11-29T09:13:25.925Z,81.54
2022-11-29T09:16:38.150Z,81.49
2022-11-29T09:19:46.432Z,81.49
2022-11-29T09:22:54.763Z,81.08
2022-11-29T09:26:06.472Z,80.88
2022-11-29T09:29:16.383Z,80.57
2022-11-29T09:32:24.709Z,80.89
2022-11-29T09:35:33.640Z,80.74
2022-11-29T09:38:42.395Z,80.74
2022-11-29T09:42:24.661Z,80.80
2022-11-29T09:45:41.137Z,80.12
2022-11-29T09:49:10.868Z,80.12
2022-11-29T09:52:37.658Z,79.73
2022-11-29T09:56:12.303Z,80.39
2022-11-29T09:59:29.100Z,80.12
2022-11-29T10:02:45.501Z,80.25
2022-11-29T10:06:03.491Z,80.14
2022-11-29T10:09:23.629Z,79.51
2022-11-29T10:12:38.889Z,79.22
2022-11-29T10:15:56.420Z,79.15
2022-11-29T10:19:16.689Z,79.02
2022-11-29T10:22:39.574Z,79.43
2022-11-29T10:25:51.320Z,79.36
2022-11-29T10:29:00.997Z,78.42
2022-11-29T10:32:15.472Z,78.06
2022-11-29T10:35:25.024Z,77.97
2022-11-29T10:38:33.275Z,77.04
2022-11-29T10:41:41.696Z,76.96
2022-11-29T10:44:49.999Z,77.49
2022-11-29T10:48:05.041Z,77.22
2022-11-29T10:51:18.612Z,76.74
2022-11-29T10:54:38.072Z,77.22
2022-11-29T10:58:17.319Z,76.89
2022-11-29T11:01:29.229Z,77.13
2022-11-29T11:04:47.566Z,77.70
2022-11-29T11:07:59.756Z,77.51
2022-11-29T11:11:09.820Z,77.41
2022-11-29T11:14:24.293Z,77.68
2022-11-29T11:17:33.848Z,76.73
2022-11-29T11:20:44.330Z,76.46
2022-11-29T11:24:00.169Z,76.69
2022-11-29T11:27:08.963Z,76.58
2022-11-29T11:30:25.001Z,75.78
2022-11-29T11:33:37.920Z,75.51
2022-11-29T11:36:47.677Z,75.11
2022-11-29T11:39:59.319Z,74.96
2022-11-29T11:43:22.079Z,74.45
2022-11-29T11:46:50.548Z,74.76
2022-11-29T11:50:13.516Z,73.96
2022-11-29T11:53:27.990Z,73.47
2022-11-29T11:56:36.965Z,73.47
2022-11-29T11:59:50.224Z,73.38
2022-11-29T12:03:01.010Z,72.93
2022-11-29T12:06:31.163Z,72.86
2022-11-29T12:09:47.432Z,72.85
2022-11-29T12:12:58.643Z,73.66
2022-11-29T12:16:15.867Z,73.39
2022-11-29T12:19:34.872Z,73.67
2022-11-29T12:22:56.955Z,75.19
2022-11-29T12:26:23.730Z,75.60
2022-11-29T12:29:42.222Z,74.59
2022-11-29T12:33:13.625Z,74.64
2022-11-29T12:36:38.925Z,75.01
2022-11-29T12:39:58.668Z,75.39
2022-11-29T12:43:23.038Z,75.13
2022-11-29T12:46:32.363Z,74.67
2022-11-29T12:49:56.843Z,75.18
2022-11-29T12:53:31.073Z,76.16
2022-11-29T12:56:49.476Z,75.12
2022-11-29T13:00:14.159Z,74.88
2022-11-29T13:03:35.075Z,74.83
2022-11-29T13:06:56.637Z,75.31
2022-11-29T13:10:53.632Z,75.20
2022-11-29T13:14:41.481Z,76.00
2022-11-29T13:17:54.760Z,75.00
2022-11-29T13:21:14.222Z,75.15
2022-11-29T13:24:36.047Z,75.12
2022-11-29T13:27:58.468Z,75.59
2022-11-29T13:31:10.919Z,75.96
2022-11-29T13:34:29.820Z,76.72
2022-11-29T13:37:53.520Z,77.16
2022-11-29T13:41:17.520Z,77.16
2022-11-29T13:44:38.163Z,77.62
2022-11-29T13:47:50.990Z,78.10
2022-11-29T13:51:30.481Z,78.71
2022-11-29T13:54:38.793Z,79.26
2022-11-29T14:01:22.540Z,81.11
2022-11-29T14:04:36.679Z,81.24
2022-11-29T14:08:26.492Z,82.39
2022-11-29T14:11:46.546Z,82.56
2022-11-29T14:15:01.467Z,81.58
2022-11-29T14:19:04.510Z,81.96
2022-11-29T14:22:31.679Z,82.66
2022-11-29T14:25:51.684Z,82.36
2022-11-29T14:29:01.639Z,82.25
2022-11-29T14:32:24.617Z,83.07
2022-11-29T14:35:45.348Z,82.87
2022-11-29T14:39:09.127Z,82.39
2022-11-29T14:42:21.566Z,82.90
2022-11-29T14:45:34.128Z,82.91
2022-11-29T14:48:47.967Z,82.76
2022-11-29T14:52:28.577Z,82.61
2022-11-29T14:55:39.838Z,82.71
2022-11-29T14:58:48.540Z,83.21
2022-11-29T15:01:58.007Z,82.81
2022-11-29T15:05:18.616Z,82.84
2022-11-29T15:08:36.487Z,83.79
2022-11-29T15:11:58.450Z,83.17
2022-11-29T15:15:31.313Z,84.23
2022-11-29T15:19:28.795Z,84.26
2022-11-29T15:22:52.475Z,84.83
2022-11-29T15:26:02.918Z,84.42
2022-11-29T15:29:15.834Z,84.40
2022-11-29T15:32:29.561Z,84.13
2022-11-29T15:35:39.135Z,84.78
2022-11-29T15:38:49.069Z,84.78
2022-11-29T15:42:05.433Z,84.40
2022-11-29T15:45:33.779Z,84.90
2022-11-29T15:48:42.079Z,85.44
2022-11-29T15:51:57.768Z,85.30
2022-11-29T15:55:14.931Z,85.42
2022-11-29T15:58:28.678Z,84.39
2022-11-29T16:01:39.316Z,84.49
2022-11-29T16:04:51.698Z,85.04
2022-11-29T16:08:05.244Z,85.44
2022-11-29T16:11:21.060Z,85.59
2022-11-29T16:14:30.959Z,85.91
2022-11-29T16:17:39.616Z,86.67
2022-11-29T16:21:00.300Z,86.14
2022-11-29T16:24:21.983Z,85.88
2022-11-29T16:27:34.092Z,85.56
2022-11-29T16:30:51.456Z,84.86
2022-11-29T16:34:11.066Z,85.35
2022-11-29T16:37:37.053Z,85.62
2022-11-29T16:41:21.341Z,85.56
2022-11-29T16:45:06.967Z,86.59
2022-11-29T16:48:40.972Z,86.11
2022-11-29T16:51:50.305Z,86.31
2022-11-29T16:55:00.881Z,86.36
2022-11-29T16:58:13.677Z,85.77
2022-11-29T17:01:27.256Z,85.52
2022-11-29T17:04:37.723Z,85.71
2022-11-29T17:07:47.373Z,85.69
2022-11-29T17:10:56.266Z,85.88
2022-11-29T17:14:04.579Z,85.77
2022-11-29T17:17:19.163Z,85.33
2022-11-29T17:20:28.892Z,85.22
2022-11-29T17:23:37.270Z,85.74
2022-11-29T17:26:46.940Z,84.83
2022-11-29T17:29:55.483Z,84.84
2022-11-29T17:33:03.801Z,84.75
2022-11-29T17:36:19.439Z,85.15
2022-11-29T17:39:28.909Z,85.01
2022-11-29T17:42:54.415Z,85.43
2022-11-29T17:46:09.369Z,85.31
2022-11-29T17:49:19.910Z,85.54
2022-11-29T17:52:29.762Z,86.07
2022-11-29T17:55:38.938Z,86.29
2022-11-29T17:58:47.993Z,87.10
2022-11-29T18:01:56.568Z,86.71
2022-11-29T18:05:05.261Z,86.33
2022-11-29T18:08:14.851Z,85.81
2022-11-29T18:11:28.347Z,85.30
2022-11-29T18:14:38.954Z,85.08
2022-11-29T18:17:47.340Z,85.03
2022-11-29T18:21:00.235Z,85.63
2022-11-29T18:24:10.703Z,85.62
2022-11-29T18:27:19.321Z,85.50
2022-11-29T18:30:27.534Z,85.84
2022-11-29T18:33:35.899Z,86.55
2022-11-29T18:36:46.598Z,86.43
2022-11-29T18:39:57.309Z,86.25
2022-11-29T18:43:05.591Z,85.56
2022-11-29T18:46:16.401Z,85.26
2022-11-29T18:49:24.754Z,85.73
2022-11-29T18:52:37.858Z,85.49
2022-11-29T18:56:01.015Z,85.13
2022-11-29T18:59:11.630Z,85.00
2022-11-29T19:02:20.447Z,84.86
2022-11-29T19:05:29.222Z,85.03
2022-11-29T19:08:38.609Z,84.55
2022-11-29T19:11:49.870Z,84.76
2022-11-29T19:14:58.181Z,85.38
2022-11-29T19:18:10.738Z,84.90
2022-11-29T19:21:21.100Z,85.32
2022-11-29T19:24:29.339Z,85.01
2022-11-29T19:27:40.153Z,84.94
2022-11-29T19:30:55.243Z,85.21
2022-11-29T19:34:03.521Z,85.25
2022-11-29T19:37:11.934Z,84.95
2022-11-29T19:40:20.245Z,84.65
2022-11-29T19:43:33.204Z,84.88
2022-11-29T19:46:45.672Z,84.99
2022-11-29T19:49:57.822Z,85.11
2022-11-29T19:53:10.369Z,85.33
2022-11-29T19:56:20.379Z,85.12
2022-11-29T19:59:31.358Z,84.85
2022-11-29T20:02:39.777Z,84.94
2022-11-29T20:05:55.867Z,83.67
2022-11-29T20:09:06.421Z,84.17
2022-11-29T20:12:14.602Z,84.72
2022-11-29T20:15:24.211Z,84.24
2022-11-29T20:18:34.129Z,84.69
2022-11-29T20:21:45.108Z,85.47
2022-11-29T20:24:54.704Z,85.31
2022-11-29T20:28:04.142Z,84.74
2022-11-29T20:31:18.196Z,84.67
2022-11-29T20:34:27.436Z,84.53
2022-11-29T20:38:04.597Z,84.76
2022-11-29T20:41:21.209Z,83.95
2022-11-29T20:44:39.220Z,83.98
2022-11-29T20:47:54.890Z,83.50
2022-11-29T20:51:04.519Z,83.47
2022-11-29T20:54:13.800Z,83.53
2022-11-29T20:57:22.619Z,83.36
2022-11-29T21:00:31.006Z,83.71
2022-11-29T21:03:40.665Z,84.44
2022-11-29T21:06:48.867Z,84.77
2022-11-29T21:10:01.133Z,84.03
2022-11-29T21:13:13.627Z,83.27
2022-11-29T21:16:28.996Z,84.20
2022-11-29T21:19:40.019Z,84.22
2022-11-29T21:23:00.274Z,84.15
2022-11-29T21:26:18.430Z,83.27
2022-11-29T21:29:30.316Z,84.42
2022-11-29T21:32:39.566Z,84.15
2022-11-29T21:35:55.651Z,83.70
2022-11-29T21:39:05.501Z,83.76
2022-11-29T21:42:16.885Z,83.41
2022-11-29T21:45:28.356Z,83.67
2022-11-29T21:48:37.740Z,84.12
2022-11-29T21:51:47.560Z,83.88
2022-11-29T21:54:56.629Z,83.49
2022-11-29T21:58:06.577Z,83.12
2022-11-29T22:01:18.094Z,83.94
2022-11-29T22:04:27.075Z,84.15
2022-11-29T22:07:36.693Z,83.91
2022-11-29T22:10:45.008Z,84.36
2022-11-29T22:14:12.332Z,85.26
2022-11-29T22:17:20.570Z,84.53
2022-11-29T22:20:28.796Z,84.93
2022-11-29T22:23:38.344Z,84.84
2022-11-29T22:26:47.223Z,85.04
2022-11-29T22:29:55.460Z,84.68
2022-11-29T22:33:04.967Z,85.07
2022-11-29T22:36:16.160Z,85.44
2022-11-29T22:39:26.220Z,85.37
2022-11-29T22:42:34.637Z,85.45
2022-11-29T22:45:42.886Z,85.46
2022-11-29T22:48:55.469Z,85.05
2022-11-29T22:52:03.743Z,84.73
2022-11-29T22:55:13.525Z,85.27
2022-11-29T22:58:21.727Z,85.79
2022-11-29T23:01:32.206Z,85.21
2022-11-29T23:04:40.458Z,85.29
2022-11-29T23:07:48.699Z,86.25
2022-11-29T23:11:00.175Z,86.18
2022-11-29T23:14:08.402Z,86.21
2022-11-29T23:17:16.619Z,86.72
2022-11-29T23:20:24.817Z,85.65
2022-11-29T23:23:33.105Z,85.69
2022-11-29T23:26:46.300Z,86.73
2022-11-29T23:29:54.524Z,85.78
2022-11-29T23:33:02.816Z,85.59
2022-11-29T23:36:12.658Z,84.95
2022-11-29T23:39:21.103Z,85.55
2022-11-29T23:42:30.898Z,84.90
2022-11-29T23:45:41.525Z,85.22
2022-11-29T23:48:50.713Z,85.32
2022-11-29T23:51:59.196Z,85.53
2022-11-29T23:55:08.648Z,85.45
2022-11-29T23:58:19.050Z,85.06
